sensor_id;sensor_type;location;lat;lon;timestamp;P1;durP1;ratioP1;P2;durP2;ratioP2
61435;SDS011;47304;47.456;19.160;2023-12-20T00:01:38;24.40;;;11.20;;
61435;SDS011;47304;47.456;19.160;2023-12-20T00:04:06;27.10;;;10.90;;
61435;SDS011;47304;47.456;19.160;2023-12-20T00:06:34;25.20;;;11.00;;
61435;SDS011;47304;47.456;19.160;2023-12-20T00:09:02;25.10;;;10.90;;
61435;SDS011;47304;47.456;19.160;2023-12-20T00:11:31;23.30;;;10.70;;
61435;SDS011;47304;47.456;19.160;2023-12-20T00:13:59;25.40;;;10.20;;
61435;SDS011;47304;47.456;19.160;2023-12-20T00:16:27;26.70;;;11.20;;
61435;SDS011;47304;47.456;19.160;2023-12-20T00:18:55;27.90;;;11.80;;
61435;SDS011;47304;47.456;19.160;2023-12-20T00:21:24;21.40;;;9.40;;
61435;SDS011;47304;47.456;19.160;2023-12-20T00:23:52;20.80;;;9.80;;
61435;SDS011;47304;47.456;19.160;2023-12-20T00:26:20;22.20;;;9.40;;
61435;SDS011;47304;47.456;19.160;2023-12-20T00:28:48;23.00;;;9.70;;
61435;SDS011;47304;47.456;19.160;2023-12-20T00:31:16;25.10;;;10.80;;
61435;SDS011;47304;47.456;19.160;2023-12-20T00:33:44;22.00;;;9.50;;
61435;SDS011;47304;47.456;19.160;2023-12-20T00:36:12;22.10;;;10.40;;
61435;SDS011;47304;47.456;19.160;2023-12-20T00:38:41;17.10;;;8.80;;
61435;SDS011;47304;47.456;19.160;2023-12-20T00:41:09;22.30;;;8.90;;
61435;SDS011;47304;47.456;19.160;2023-12-20T00:43:37;23.40;;;11.00;;
61435;SDS011;47304;47.456;19.160;2023-12-20T00:46:05;21.40;;;9.50;;
61435;SDS011;47304;47.456;19.160;2023-12-20T00:48:33;25.30;;;10.80;;
61435;SDS011;47304;47.456;19.160;2023-12-20T00:51:02;20.50;;;8.60;;
61435;SDS011;47304;47.456;19.160;2023-12-20T00:53:30;20.30;;;9.80;;
61435;SDS011;47304;47.456;19.160;2023-12-20T00:55:59;23.10;;;9.90;;
61435;SDS011;47304;47.456;19.160;2023-12-20T00:58:27;24.20;;;10.10;;
61435;SDS011;47304;47.456;19.160;2023-12-20T01:00:55;21.40;;;9.90;;
61435;SDS011;47304;47.456;19.160;2023-12-20T01:03:23;25.40;;;10.30;;
61435;SDS011;47304;47.456;19.160;2023-12-20T01:05:51;24.30;;;9.60;;
61435;SDS011;47304;47.456;19.160;2023-12-20T01:08:19;25.00;;;10.80;;
61435;SDS011;47304;47.456;19.160;2023-12-20T01:10:47;25.80;;;11.30;;
61435;SDS011;47304;47.456;19.160;2023-12-20T01:13:15;27.40;;;11.30;;
61435;SDS011;47304;47.456;19.160;2023-12-20T01:15:44;23.20;;;10.50;;
61435;SDS011;47304;47.456;19.160;2023-12-20T01:18:13;23.70;;;11.10;;
61435;SDS011;47304;47.456;19.160;2023-12-20T01:20:41;26.20;;;10.80;;
61435;SDS011;47304;47.456;19.160;2023-12-20T01:23:09;26.80;;;10.70;;
61435;SDS011;47304;47.456;19.160;2023-12-20T01:25:37;23.10;;;10.60;;
61435;SDS011;47304;47.456;19.160;2023-12-20T01:28:05;26.10;;;11.00;;
61435;SDS011;47304;47.456;19.160;2023-12-20T01:30:33;27.50;;;11.30;;
61435;SDS011;47304;47.456;19.160;2023-12-20T01:33:02;26.00;;;11.80;;
61435;SDS011;47304;47.456;19.160;2023-12-20T01:35:30;24.10;;;10.70;;
61435;SDS011;47304;47.456;19.160;2023-12-20T01:37:58;25.30;;;11.20;;
61435;SDS011;47304;47.456;19.160;2023-12-20T01:40:27;25.10;;;11.40;;
61435;SDS011;47304;47.456;19.160;2023-12-20T01:43:01;22.90;;;11.10;;
61435;SDS011;47304;47.456;19.160;2023-12-20T01:45:34;25.50;;;11.80;;
61435;SDS011;47304;47.456;19.160;2023-12-20T01:48:02;23.00;;;9.90;;
61435;SDS011;47304;47.456;19.160;2023-12-20T01:50:33;30.00;;;11.40;;
61435;SDS011;47304;47.456;19.160;2023-12-20T01:53:04;25.80;;;10.70;;
61435;SDS011;47304;47.456;19.160;2023-12-20T01:55:35;26.20;;;10.90;;
61435;SDS011;47304;47.456;19.160;2023-12-20T01:58:05;27.60;;;12.00;;
61435;SDS011;47304;47.456;19.160;2023-12-20T02:00:34;26.90;;;12.20;;
61435;SDS011;47304;47.456;19.160;2023-12-20T02:03:03;26.60;;;12.30;;
61435;SDS011;47304;47.456;19.160;2023-12-20T02:05:33;24.80;;;10.50;;
61435;SDS011;47304;47.456;19.160;2023-12-20T02:08:02;25.40;;;11.50;;
61435;SDS011;47304;47.456;19.160;2023-12-20T02:10:30;28.70;;;12.60;;
61435;SDS011;47304;47.456;19.160;2023-12-20T02:12:59;29.90;;;12.80;;
61435;SDS011;47304;47.456;19.160;2023-12-20T02:15:27;27.30;;;12.60;;
61435;SDS011;47304;47.456;19.160;2023-12-20T02:17:56;31.50;;;14.50;;
61435;SDS011;47304;47.456;19.160;2023-12-20T02:20:24;28.70;;;13.40;;
61435;SDS011;47304;47.456;19.160;2023-12-20T02:22:52;33.90;;;15.00;;
61435;SDS011;47304;47.456;19.160;2023-12-20T02:25:20;30.50;;;13.60;;
61435;SDS011;47304;47.456;19.160;2023-12-20T02:27:49;29.60;;;13.90;;
61435;SDS011;47304;47.456;19.160;2023-12-20T02:30:18;32.50;;;14.90;;
61435;SDS011;47304;47.456;19.160;2023-12-20T02:32:46;28.20;;;13.80;;
61435;SDS011;47304;47.456;19.160;2023-12-20T02:35:16;29.70;;;15.20;;
61435;SDS011;47304;47.456;19.160;2023-12-20T02:37:44;26.80;;;14.10;;
61435;SDS011;47304;47.456;19.160;2023-12-20T02:40:12;30.90;;;14.30;;
61435;SDS011;47304;47.456;19.160;2023-12-20T02:42:40;30.70;;;14.40;;
61435;SDS011;47304;47.456;19.160;2023-12-20T02:45:09;30.40;;;14.70;;
61435;SDS011;47304;47.456;19.160;2023-12-20T02:47:37;31.30;;;15.50;;
61435;SDS011;47304;47.456;19.160;2023-12-20T02:50:06;30.40;;;14.20;;
61435;SDS011;47304;47.456;19.160;2023-12-20T02:52:35;29.50;;;15.10;;
61435;SDS011;47304;47.456;19.160;2023-12-20T02:55:03;30.80;;;15.50;;
61435;SDS011;47304;47.456;19.160;2023-12-20T02:57:32;33.60;;;15.80;;
61435;SDS011;47304;47.456;19.160;2023-12-20T03:00:00;34.00;;;15.20;;
61435;SDS011;47304;47.456;19.160;2023-12-20T03:02:29;32.50;;;15.20;;
61435;SDS011;47304;47.456;19.160;2023-12-20T03:04:57;29.00;;;14.50;;
61435;SDS011;47304;47.456;19.160;2023-12-20T03:07:25;26.80;;;13.50;;
61435;SDS011;47304;47.456;19.160;2023-12-20T03:09:54;30.10;;;14.20;;
61435;SDS011;47304;47.456;19.160;2023-12-20T03:12:22;28.10;;;14.70;;
61435;SDS011;47304;47.456;19.160;2023-12-20T03:14:50;30.80;;;14.20;;
61435;SDS011;47304;47.456;19.160;2023-12-20T03:17:19;34.10;;;14.60;;
61435;SDS011;47304;47.456;19.160;2023-12-20T03:19:47;28.20;;;13.70;;
61435;SDS011;47304;47.456;19.160;2023-12-20T03:22:15;32.60;;;15.20;;
61435;SDS011;47304;47.456;19.160;2023-12-20T03:24:43;35.80;;;16.60;;
61435;SDS011;47304;47.456;19.160;2023-12-20T03:27:11;34.30;;;14.70;;
61435;SDS011;47304;47.456;19.160;2023-12-20T03:29:39;28.80;;;14.00;;
61435;SDS011;47304;47.456;19.160;2023-12-20T03:32:08;30.30;;;13.80;;
61435;SDS011;47304;47.456;19.160;2023-12-20T03:34:36;29.60;;;13.20;;
61435;SDS011;47304;47.456;19.160;2023-12-20T03:37:04;32.40;;;13.90;;
61435;SDS011;47304;47.456;19.160;2023-12-20T03:39:32;33.60;;;16.10;;
61435;SDS011;47304;47.456;19.160;2023-12-20T03:42:00;30.00;;;13.60;;
61435;SDS011;47304;47.456;19.160;2023-12-20T03:44:29;31.70;;;13.70;;
61435;SDS011;47304;47.456;19.160;2023-12-20T03:46:57;26.70;;;11.00;;
61435;SDS011;47304;47.456;19.160;2023-12-20T03:49:25;21.20;;;10.40;;
61435;SDS011;47304;47.456;19.160;2023-12-20T03:51:53;29.40;;;12.80;;
61435;SDS011;47304;47.456;19.160;2023-12-20T03:54:22;28.60;;;11.90;;
61435;SDS011;47304;47.456;19.160;2023-12-20T03:56:50;28.40;;;11.50;;
61435;SDS011;47304;47.456;19.160;2023-12-20T03:59:19;25.10;;;11.70;;
61435;SDS011;47304;47.456;19.160;2023-12-20T04:01:47;28.00;;;12.30;;
61435;SDS011;47304;47.456;19.160;2023-12-20T04:04:15;24.00;;;10.30;;
61435;SDS011;47304;47.456;19.160;2023-12-20T04:06:43;26.20;;;12.10;;
61435;SDS011;47304;47.456;19.160;2023-12-20T04:09:11;26.30;;;12.70;;
61435;SDS011;47304;47.456;19.160;2023-12-20T04:11:40;25.70;;;12.40;;
61435;SDS011;47304;47.456;19.160;2023-12-20T04:14:08;28.60;;;12.70;;
61435;SDS011;47304;47.456;19.160;2023-12-20T04:16:36;27.10;;;13.00;;
61435;SDS011;47304;47.456;19.160;2023-12-20T04:19:04;28.80;;;13.30;;
61435;SDS011;47304;47.456;19.160;2023-12-20T04:21:33;24.10;;;11.50;;
61435;SDS011;47304;47.456;19.160;2023-12-20T04:24:01;26.90;;;11.80;;
61435;SDS011;47304;47.456;19.160;2023-12-20T04:26:30;32.20;;;14.80;;
61435;SDS011;47304;47.456;19.160;2023-12-20T04:28:58;56.80;;;23.90;;
61435;SDS011;47304;47.456;19.160;2023-12-20T04:31:27;35.10;;;15.90;;
61435;SDS011;47304;47.456;19.160;2023-12-20T04:33:55;28.30;;;13.40;;
61435;SDS011;47304;47.456;19.160;2023-12-20T04:36:23;29.00;;;13.50;;
61435;SDS011;47304;47.456;19.160;2023-12-20T04:38:51;27.10;;;12.90;;
61435;SDS011;47304;47.456;19.160;2023-12-20T04:41:20;30.50;;;14.70;;
61435;SDS011;47304;47.456;19.160;2023-12-20T04:43:48;31.80;;;14.50;;
61435;SDS011;47304;47.456;19.160;2023-12-20T04:46:16;30.20;;;12.60;;
61435;SDS011;47304;47.456;19.160;2023-12-20T04:48:45;29.00;;;12.70;;
61435;SDS011;47304;47.456;19.160;2023-12-20T04:51:13;24.60;;;12.30;;
61435;SDS011;47304;47.456;19.160;2023-12-20T04:53:41;26.10;;;12.40;;
61435;SDS011;47304;47.456;19.160;2023-12-20T04:56:09;20.40;;;10.50;;
61435;SDS011;47304;47.456;19.160;2023-12-20T04:58:38;28.90;;;13.50;;
61435;SDS011;47304;47.456;19.160;2023-12-20T05:01:06;25.10;;;12.60;;
61435;SDS011;47304;47.456;19.160;2023-12-20T05:03:34;29.90;;;13.80;;
61435;SDS011;47304;47.456;19.160;2023-12-20T05:06:03;27.60;;;12.50;;
61435;SDS011;47304;47.456;19.160;2023-12-20T05:08:31;26.50;;;12.20;;
61435;SDS011;47304;47.456;19.160;2023-12-20T05:11:00;28.60;;;14.20;;
61435;SDS011;47304;47.456;19.160;2023-12-20T05:13:28;29.40;;;13.10;;
61435;SDS011;47304;47.456;19.160;2023-12-20T05:15:56;26.10;;;12.60;;
61435;SDS011;47304;47.456;19.160;2023-12-20T05:18:25;34.50;;;15.20;;
61435;SDS011;47304;47.456;19.160;2023-12-20T05:20:53;33.10;;;14.20;;
61435;SDS011;47304;47.456;19.160;2023-12-20T05:23:21;31.80;;;13.40;;
61435;SDS011;47304;47.456;19.160;2023-12-20T05:25:49;28.20;;;13.00;;
61435;SDS011;47304;47.456;19.160;2023-12-20T05:28:17;29.40;;;13.90;;
61435;SDS011;47304;47.456;19.160;2023-12-20T05:30:46;27.70;;;14.10;;
61435;SDS011;47304;47.456;19.160;2023-12-20T05:33:14;32.10;;;14.00;;
61435;SDS011;47304;47.456;19.160;2023-12-20T05:35:42;33.90;;;14.50;;
61435;SDS011;47304;47.456;19.160;2023-12-20T05:38:11;26.60;;;12.80;;
61435;SDS011;47304;47.456;19.160;2023-12-20T05:40:39;27.40;;;12.50;;
61435;SDS011;47304;47.456;19.160;2023-12-20T05:43:07;28.90;;;13.20;;
61435;SDS011;47304;47.456;19.160;2023-12-20T05:45:35;30.30;;;14.60;;
61435;SDS011;47304;47.456;19.160;2023-12-20T05:48:04;30.90;;;13.50;;
61435;SDS011;47304;47.456;19.160;2023-12-20T05:50:32;30.30;;;14.00;;
61435;SDS011;47304;47.456;19.160;2023-12-20T05:53:01;25.80;;;13.40;;
61435;SDS011;47304;47.456;19.160;2023-12-20T05:55:29;27.50;;;12.60;;
61435;SDS011;47304;47.456;19.160;2023-12-20T05:57:57;31.40;;;12.10;;
61435;SDS011;47304;47.456;19.160;2023-12-20T06:00:25;29.20;;;13.30;;
61435;SDS011;47304;47.456;19.160;2023-12-20T06:02:54;33.90;;;15.70;;
61435;SDS011;47304;47.456;19.160;2023-12-20T06:05:22;29.80;;;13.70;;
61435;SDS011;47304;47.456;19.160;2023-12-20T06:07:50;35.10;;;15.00;;
61435;SDS011;47304;47.456;19.160;2023-12-20T06:10:18;22.90;;;9.90;;
61435;SDS011;47304;47.456;19.160;2023-12-20T06:12:46;30.90;;;13.60;;
61435;SDS011;47304;47.456;19.160;2023-12-20T06:15:15;29.30;;;15.20;;
61435;SDS011;47304;47.456;19.160;2023-12-20T06:17:43;28.00;;;12.90;;
61435;SDS011;47304;47.456;19.160;2023-12-20T06:20:11;26.40;;;12.00;;
61435;SDS011;47304;47.456;19.160;2023-12-20T06:22:40;24.30;;;12.70;;
61435;SDS011;47304;47.456;19.160;2023-12-20T06:25:09;29.30;;;13.70;;
61435;SDS011;47304;47.456;19.160;2023-12-20T06:27:37;26.40;;;10.90;;
61435;SDS011;47304;47.456;19.160;2023-12-20T06:30:07;30.60;;;14.80;;
61435;SDS011;47304;47.456;19.160;2023-12-20T06:32:36;34.40;;;15.90;;
61435;SDS011;47304;47.456;19.160;2023-12-20T06:35:05;29.80;;;12.80;;
61435;SDS011;47304;47.456;19.160;2023-12-20T06:37:34;30.70;;;13.40;;
61435;SDS011;47304;47.456;19.160;2023-12-20T06:40:03;31.20;;;14.00;;
61435;SDS011;47304;47.456;19.160;2023-12-20T06:42:33;26.00;;;11.60;;
61435;SDS011;47304;47.456;19.160;2023-12-20T06:45:01;27.80;;;13.20;;
61435;SDS011;47304;47.456;19.160;2023-12-20T06:47:30;27.40;;;12.80;;
61435;SDS011;47304;47.456;19.160;2023-12-20T06:49:58;32.50;;;14.30;;
61435;SDS011;47304;47.456;19.160;2023-12-20T06:52:27;28.90;;;14.30;;
61435;SDS011;47304;47.456;19.160;2023-12-20T06:54:55;27.70;;;13.20;;
61435;SDS011;47304;47.456;19.160;2023-12-20T06:57:23;27.30;;;12.10;;
61435;SDS011;47304;47.456;19.160;2023-12-20T06:59:51;30.90;;;13.80;;
61435;SDS011;47304;47.456;19.160;2023-12-20T07:02:20;22.90;;;10.10;;
61435;SDS011;47304;47.456;19.160;2023-12-20T07:04:48;33.20;;;15.50;;
61435;SDS011;47304;47.456;19.160;2023-12-20T07:07:16;28.40;;;12.90;;
61435;SDS011;47304;47.456;19.160;2023-12-20T07:09:44;29.50;;;15.00;;
61435;SDS011;47304;47.456;19.160;2023-12-20T07:12:12;28.50;;;14.00;;
61435;SDS011;47304;47.456;19.160;2023-12-20T07:14:41;25.80;;;11.50;;
61435;SDS011;47304;47.456;19.160;2023-12-20T07:17:09;35.30;;;15.50;;
61435;SDS011;47304;47.456;19.160;2023-12-20T07:19:37;30.40;;;14.60;;
61435;SDS011;47304;47.456;19.160;2023-12-20T07:22:06;28.90;;;14.20;;
61435;SDS011;47304;47.456;19.160;2023-12-20T07:24:34;27.40;;;13.70;;
61435;SDS011;47304;47.456;19.160;2023-12-20T07:27:03;32.90;;;15.60;;
61435;SDS011;47304;47.456;19.160;2023-12-20T07:29:31;35.60;;;15.30;;
61435;SDS011;47304;47.456;19.160;2023-12-20T07:31:59;34.50;;;13.70;;
61435;SDS011;47304;47.456;19.160;2023-12-20T07:34:27;41.30;;;16.10;;
61435;SDS011;47304;47.456;19.160;2023-12-20T07:36:55;36.30;;;16.80;;
61435;SDS011;47304;47.456;19.160;2023-12-20T07:39:24;38.60;;;17.20;;
61435;SDS011;47304;47.456;19.160;2023-12-20T07:41:52;45.50;;;18.00;;
61435;SDS011;47304;47.456;19.160;2023-12-20T07:44:20;35.60;;;15.70;;
61435;SDS011;47304;47.456;19.160;2023-12-20T07:46:48;33.30;;;15.60;;
61435;SDS011;47304;47.456;19.160;2023-12-20T07:49:17;31.70;;;14.90;;
61435;SDS011;47304;47.456;19.160;2023-12-20T07:51:45;35.80;;;15.80;;
61435;SDS011;47304;47.456;19.160;2023-12-20T07:54:13;36.60;;;17.40;;
61435;SDS011;47304;47.456;19.160;2023-12-20T07:56:41;43.40;;;17.40;;
61435;SDS011;47304;47.456;19.160;2023-12-20T07:59:10;29.80;;;13.10;;
61435;SDS011;47304;47.456;19.160;2023-12-20T08:01:38;33.40;;;14.70;;
61435;SDS011;47304;47.456;19.160;2023-12-20T08:04:06;38.60;;;15.90;;
61435;SDS011;47304;47.456;19.160;2023-12-20T08:06:34;36.10;;;14.60;;
61435;SDS011;47304;47.456;19.160;2023-12-20T08:09:02;33.40;;;14.30;;
61435;SDS011;47304;47.456;19.160;2023-12-20T08:11:30;36.70;;;15.40;;
61435;SDS011;47304;47.456;19.160;2023-12-20T08:13:59;34.80;;;13.60;;
61435;SDS011;47304;47.456;19.160;2023-12-20T08:16:27;38.00;;;15.10;;
61435;SDS011;47304;47.456;19.160;2023-12-20T08:18:55;37.80;;;16.10;;
61435;SDS011;47304;47.456;19.160;2023-12-20T08:21:23;41.20;;;15.50;;
61435;SDS011;47304;47.456;19.160;2023-12-20T08:26:09;30.90;;;11.70;;
61435;SDS011;47304;47.456;19.160;2023-12-20T08:28:37;32.60;;;14.80;;
61435;SDS011;47304;47.456;19.160;2023-12-20T08:31:05;31.10;;;14.30;;
61435;SDS011;47304;47.456;19.160;2023-12-20T08:33:39;34.50;;;14.00;;
61435;SDS011;47304;47.456;19.160;2023-12-20T08:36:08;38.70;;;16.20;;
61435;SDS011;47304;47.456;19.160;2023-12-20T08:38:36;39.50;;;16.20;;
61435;SDS011;47304;47.456;19.160;2023-12-20T08:41:04;36.40;;;16.50;;
61435;SDS011;47304;47.456;19.160;2023-12-20T08:43:33;38.30;;;16.10;;
61435;SDS011;47304;47.456;19.160;2023-12-20T08:46:02;39.80;;;16.50;;
61435;SDS011;47304;47.456;19.160;2023-12-20T08:48:31;41.50;;;16.90;;
61435;SDS011;47304;47.456;19.160;2023-12-20T08:50:59;44.00;;;20.40;;
61435;SDS011;47304;47.456;19.160;2023-12-20T08:53:27;47.30;;;20.70;;
61435;SDS011;47304;47.456;19.160;2023-12-20T08:55:55;39.80;;;17.60;;
61435;SDS011;47304;47.456;19.160;2023-12-20T08:58:24;37.60;;;15.90;;
61435;SDS011;47304;47.456;19.160;2023-12-20T09:00:52;35.30;;;16.10;;
61435;SDS011;47304;47.456;19.160;2023-12-20T09:03:21;38.00;;;17.60;;
61435;SDS011;47304;47.456;19.160;2023-12-20T09:05:49;43.50;;;17.90;;
61435;SDS011;47304;47.456;19.160;2023-12-20T09:08:17;37.90;;;16.50;;
61435;SDS011;47304;47.456;19.160;2023-12-20T09:10:45;37.80;;;16.90;;
61435;SDS011;47304;47.456;19.160;2023-12-20T09:13:14;41.20;;;16.70;;
61435;SDS011;47304;47.456;19.160;2023-12-20T09:15:42;35.00;;;16.40;;
61435;SDS011;47304;47.456;19.160;2023-12-20T09:18:11;31.80;;;14.50;;
61435;SDS011;47304;47.456;19.160;2023-12-20T09:20:39;27.40;;;12.00;;
61435;SDS011;47304;47.456;19.160;2023-12-20T09:23:07;38.80;;;17.30;;
61435;SDS011;47304;47.456;19.160;2023-12-20T09:25:36;39.70;;;18.60;;
61435;SDS011;47304;47.456;19.160;2023-12-20T09:28:04;34.50;;;14.10;;
61435;SDS011;47304;47.456;19.160;2023-12-20T09:30:33;37.30;;;16.80;;
61435;SDS011;47304;47.456;19.160;2023-12-20T09:33:01;40.90;;;17.50;;
61435;SDS011;47304;47.456;19.160;2023-12-20T09:35:30;40.40;;;18.00;;
61435;SDS011;47304;47.456;19.160;2023-12-20T09:37:58;42.60;;;18.10;;
61435;SDS011;47304;47.456;19.160;2023-12-20T09:40:26;43.50;;;19.00;;
61435;SDS011;47304;47.456;19.160;2023-12-20T09:42:56;35.30;;;15.50;;
61435;SDS011;47304;47.456;19.160;2023-12-20T09:45:29;41.30;;;17.40;;
61435;SDS011;47304;47.456;19.160;2023-12-20T09:47:58;39.80;;;16.80;;
61435;SDS011;47304;47.456;19.160;2023-12-20T09:50:26;43.40;;;18.00;;
61435;SDS011;47304;47.456;19.160;2023-12-20T09:52:56;36.20;;;17.50;;
61435;SDS011;47304;47.456;19.160;2023-12-20T09:55:27;45.50;;;18.90;;
61435;SDS011;47304;47.456;19.160;2023-12-20T09:57:56;36.90;;;16.60;;
61435;SDS011;47304;47.456;19.160;2023-12-20T10:00:25;48.60;;;21.40;;
61435;SDS011;47304;47.456;19.160;2023-12-20T10:02:56;42.90;;;18.30;;
61435;SDS011;47304;47.456;19.160;2023-12-20T10:05:28;48.20;;;18.20;;
61435;SDS011;47304;47.456;19.160;2023-12-20T10:07:57;44.70;;;19.20;;
61435;SDS011;47304;47.456;19.160;2023-12-20T10:10:26;46.40;;;18.90;;
61435;SDS011;47304;47.456;19.160;2023-12-20T10:13:05;39.20;;;17.10;;
61435;SDS011;47304;47.456;19.160;2023-12-20T10:15:34;45.00;;;20.20;;
61435;SDS011;47304;47.456;19.160;2023-12-20T10:18:03;39.80;;;18.80;;
61435;SDS011;47304;47.456;19.160;2023-12-20T10:20:33;41.10;;;18.40;;
61435;SDS011;47304;47.456;19.160;2023-12-20T10:23:02;39.70;;;17.80;;
61435;SDS011;47304;47.456;19.160;2023-12-20T10:25:30;40.30;;;19.20;;
61435;SDS011;47304;47.456;19.160;2023-12-20T10:28:11;44.70;;;18.60;;
61435;SDS011;47304;47.456;19.160;2023-12-20T10:30:40;41.60;;;18.90;;
61435;SDS011;47304;47.456;19.160;2023-12-20T10:33:08;43.90;;;18.80;;
61435;SDS011;47304;47.456;19.160;2023-12-20T10:35:37;43.60;;;19.90;;
61435;SDS011;47304;47.456;19.160;2023-12-20T10:38:06;39.80;;;18.60;;
61435;SDS011;47304;47.456;19.160;2023-12-20T10:40:35;44.50;;;20.40;;
61435;SDS011;47304;47.456;19.160;2023-12-20T10:43:04;39.40;;;19.00;;
61435;SDS011;47304;47.456;19.160;2023-12-20T10:45:34;41.80;;;18.60;;
61435;SDS011;47304;47.456;19.160;2023-12-20T10:48:03;39.60;;;19.30;;
61435;SDS011;47304;47.456;19.160;2023-12-20T10:50:32;42.80;;;20.50;;
61435;SDS011;47304;47.456;19.160;2023-12-20T10:53:02;46.90;;;20.20;;
61435;SDS011;47304;47.456;19.160;2023-12-20T10:55:31;47.30;;;20.50;;
61435;SDS011;47304;47.456;19.160;2023-12-20T10:58:00;44.20;;;20.90;;
61435;SDS011;47304;47.456;19.160;2023-12-20T11:00:33;49.40;;;21.50;;
61435;SDS011;47304;47.456;19.160;2023-12-20T11:03:05;51.50;;;22.20;;
61435;SDS011;47304;47.456;19.160;2023-12-20T11:05:38;45.30;;;22.70;;
61435;SDS011;47304;47.456;19.160;2023-12-20T11:08:14;53.80;;;26.10;;
61435;SDS011;47304;47.456;19.160;2023-12-20T11:10:48;52.80;;;24.00;;
61435;SDS011;47304;47.456;19.160;2023-12-20T11:13:22;65.00;;;28.50;;
61435;SDS011;47304;47.456;19.160;2023-12-20T11:15:55;45.00;;;21.50;;
61435;SDS011;47304;47.456;19.160;2023-12-20T11:18:29;62.70;;;27.20;;
61435;SDS011;47304;47.456;19.160;2023-12-20T11:20:57;59.70;;;26.20;;
61435;SDS011;47304;47.456;19.160;2023-12-20T11:23:30;42.70;;;21.20;;
61435;SDS011;47304;47.456;19.160;2023-12-20T11:26:00;52.90;;;24.30;;
61435;SDS011;47304;47.456;19.160;2023-12-20T11:28:29;54.80;;;25.20;;
61435;SDS011;47304;47.456;19.160;2023-12-20T11:30:58;38.80;;;19.60;;
61435;SDS011;47304;47.456;19.160;2023-12-20T11:33:29;52.50;;;22.60;;
61435;SDS011;47304;47.456;19.160;2023-12-20T11:36:02;53.20;;;26.20;;
61435;SDS011;47304;47.456;19.160;2023-12-20T11:38:38;49.90;;;23.00;;
61435;SDS011;47304;47.456;19.160;2023-12-20T11:41:23;52.60;;;24.90;;
61435;SDS011;47304;47.456;19.160;2023-12-20T11:43:53;56.00;;;25.20;;
61435;SDS011;47304;47.456;19.160;2023-12-20T11:46:22;53.40;;;26.10;;
61435;SDS011;47304;47.456;19.160;2023-12-20T11:48:50;55.00;;;26.40;;
61435;SDS011;47304;47.456;19.160;2023-12-20T11:51:19;45.00;;;22.80;;
61435;SDS011;47304;47.456;19.160;2023-12-20T11:53:50;58.00;;;28.50;;
61435;SDS011;47304;47.456;19.160;2023-12-20T11:56:19;55.00;;;26.70;;
61435;SDS011;47304;47.456;19.160;2023-12-20T11:58:47;50.30;;;25.50;;
61435;SDS011;47304;47.456;19.160;2023-12-20T12:01:15;52.20;;;25.40;;
61435;SDS011;47304;47.456;19.160;2023-12-20T12:03:46;60.50;;;29.10;;
61435;SDS011;47304;47.456;19.160;2023-12-20T12:06:14;56.20;;;27.00;;
61435;SDS011;47304;47.456;19.160;2023-12-20T12:08:42;61.60;;;31.40;;
61435;SDS011;47304;47.456;19.160;2023-12-20T12:11:11;61.70;;;31.00;;
61435;SDS011;47304;47.456;19.160;2023-12-20T12:13:39;61.80;;;31.90;;
61435;SDS011;47304;47.456;19.160;2023-12-20T12:16:07;59.00;;;30.70;;
61435;SDS011;47304;47.456;19.160;2023-12-20T12:18:36;62.10;;;29.40;;
61435;SDS011;47304;47.456;19.160;2023-12-20T12:21:05;60.40;;;29.10;;
61435;SDS011;47304;47.456;19.160;2023-12-20T12:23:33;58.70;;;28.40;;
61435;SDS011;47304;47.456;19.160;2023-12-20T12:26:01;58.70;;;29.50;;
61435;SDS011;47304;47.456;19.160;2023-12-20T12:28:31;58.10;;;30.30;;
61435;SDS011;47304;47.456;19.160;2023-12-20T12:31:00;56.70;;;29.60;;
61435;SDS011;47304;47.456;19.160;2023-12-20T12:33:29;59.80;;;30.20;;
61435;SDS011;47304;47.456;19.160;2023-12-20T12:35:57;59.00;;;29.90;;
61435;SDS011;47304;47.456;19.160;2023-12-20T12:38:26;57.60;;;29.60;;
61435;SDS011;47304;47.456;19.160;2023-12-20T12:40:54;55.20;;;28.60;;
61435;SDS011;47304;47.456;19.160;2023-12-20T12:43:23;57.10;;;29.60;;
61435;SDS011;47304;47.456;19.160;2023-12-20T12:45:51;56.70;;;28.80;;
61435;SDS011;47304;47.456;19.160;2023-12-20T12:48:20;53.40;;;26.30;;
61435;SDS011;47304;47.456;19.160;2023-12-20T12:50:48;53.00;;;27.00;;
61435;SDS011;47304;47.456;19.160;2023-12-20T12:53:17;51.10;;;27.00;;
61435;SDS011;47304;47.456;19.160;2023-12-20T12:55:45;38.60;;;21.40;;
61435;SDS011;47304;47.456;19.160;2023-12-20T12:58:13;41.50;;;21.80;;
61435;SDS011;47304;47.456;19.160;2023-12-20T13:00:42;41.20;;;22.20;;
61435;SDS011;47304;47.456;19.160;2023-12-20T13:03:10;38.80;;;20.50;;
61435;SDS011;47304;47.456;19.160;2023-12-20T13:05:38;37.80;;;18.40;;
61435;SDS011;47304;47.456;19.160;2023-12-20T13:08:07;35.80;;;18.30;;
61435;SDS011;47304;47.456;19.160;2023-12-20T13:10:35;28.70;;;15.60;;
61435;SDS011;47304;47.456;19.160;2023-12-20T13:13:03;31.10;;;16.00;;
61435;SDS011;47304;47.456;19.160;2023-12-20T13:15:31;23.30;;;13.60;;
61435;SDS011;47304;47.456;19.160;2023-12-20T13:18:00;28.30;;;14.60;;
61435;SDS011;47304;47.456;19.160;2023-12-20T13:20:28;25.70;;;13.40;;
61435;SDS011;47304;47.456;19.160;2023-12-20T13:22:56;21.70;;;12.30;;
61435;SDS011;47304;47.456;19.160;2023-12-20T13:25:25;25.30;;;12.20;;
61435;SDS011;47304;47.456;19.160;2023-12-20T13:27:53;24.40;;;13.00;;
61435;SDS011;47304;47.456;19.160;2023-12-20T13:30:21;22.40;;;10.90;;
61435;SDS011;47304;47.456;19.160;2023-12-20T13:32:49;23.50;;;11.40;;
61435;SDS011;47304;47.456;19.160;2023-12-20T13:35:17;19.50;;;10.40;;
61435;SDS011;47304;47.456;19.160;2023-12-20T13:37:45;19.80;;;10.10;;
61435;SDS011;47304;47.456;19.160;2023-12-20T13:40:13;20.30;;;10.50;;
61435;SDS011;47304;47.456;19.160;2023-12-20T13:42:42;18.80;;;10.50;;
61435;SDS011;47304;47.456;19.160;2023-12-20T13:45:10;17.80;;;9.70;;
61435;SDS011;47304;47.456;19.160;2023-12-20T13:47:39;19.70;;;9.40;;
61435;SDS011;47304;47.456;19.160;2023-12-20T13:50:07;17.40;;;9.20;;
61435;SDS011;47304;47.456;19.160;2023-12-20T13:52:36;17.10;;;9.20;;
61435;SDS011;47304;47.456;19.160;2023-12-20T13:55:05;17.20;;;8.10;;
61435;SDS011;47304;47.456;19.160;2023-12-20T13:57:34;21.50;;;10.10;;
61435;SDS011;47304;47.456;19.160;2023-12-20T14:00:02;16.90;;;8.90;;
61435;SDS011;47304;47.456;19.160;2023-12-20T14:02:32;14.50;;;7.70;;
61435;SDS011;47304;47.456;19.160;2023-12-20T14:05:00;15.90;;;8.60;;
61435;SDS011;47304;47.456;19.160;2023-12-20T14:07:28;16.90;;;8.20;;
61435;SDS011;47304;47.456;19.160;2023-12-20T14:09:56;14.80;;;7.60;;
61435;SDS011;47304;47.456;19.160;2023-12-20T14:12:25;17.20;;;9.30;;
61435;SDS011;47304;47.456;19.160;2023-12-20T14:14:53;15.70;;;8.10;;
61435;SDS011;47304;47.456;19.160;2023-12-20T14:17:21;13.10;;;6.80;;
61435;SDS011;47304;47.456;19.160;2023-12-20T14:19:49;14.60;;;8.30;;
61435;SDS011;47304;47.456;19.160;2023-12-20T14:22:18;13.80;;;7.00;;